Terminal Aerodrome Forecast
Issued by NWS Rapid City, SD

Home | Current Version | Previous Version | Graphics & Text | Print | Product List | Glossary Off
Versions: 1 2 3 4 5 6 7 8 9 10 11 12 13 14 15 16

000
FTUS43 KUNR 201100
TAFRAP
TAF
KRAP 201128Z 2012/2112 15010KT P6SM BKN120
      TEMPO 2012/2015 -SHRA BKN080
     FM201900 34014KT P6SM BKN080=

USA.gov is the U.S. government's official web portal to all federal, state and local government web resources and services.